O09 weather

Round Valley Airport
Covelo, California, United States

Public forecast

Using degrees Fahrenheit for public forecast. Weather courtesy of forecast.io.

Closest aviation weather report (METAR) to Round Valley Airport

Closest report is Ukiah Municipal Airport, 40.0 nm (74.1 km) S. Retrieved 2019/10/14 04:56 UTC (16 minutes ago):

KUKI 140456Z AUTO 00000KT 10SM CLR 12/M01 A2987 RMK AO2 SLP112 T01221011

Closest aviation forecast (TAF) to Round Valley Airport

Closest forecast is Ukiah Municipal Airport, 40.0 nm (74.1 km) S. Retrieved 2019-10-14 00:45 UTC (4 hours ago):

TAF KUKI 132342Z 1400/1424 VRB03KT P6SM FEW250